sensor_id;sensor_type;location;lat;lon;timestamp;pressure;altitude;pressure_sealevel;temperature;humidity
72336;BME280;73817;48.446;8.834;2023-12-28T00:00:46;97754.22;;;0.25;96.37
72336;BME280;73817;48.446;8.834;2023-12-28T00:03:48;97743.94;;;0.25;96.33
72336;BME280;73817;48.446;8.834;2023-12-28T00:06:48;97740.66;;;0.23;95.28
72336;BME280;73817;48.446;8.834;2023-12-28T00:09:49;97748.59;;;0.20;95.16
72336;BME280;73817;48.446;8.834;2023-12-28T00:12:49;97747.78;;;0.19;95.29
72336;BME280;73817;48.446;8.834;2023-12-28T00:15:49;97749.66;;;0.17;95.61
72336;BME280;73817;48.446;8.834;2023-12-28T00:18:50;97754.81;;;0.17;96.12
72336;BME280;73817;48.446;8.834;2023-12-28T00:21:50;97755.75;;;0.16;96.25
72336;BME280;73817;48.446;8.834;2023-12-28T00:24:50;97751.50;;;0.15;96.01
72336;BME280;73817;48.446;8.834;2023-12-28T00:27:51;97754.09;;;0.15;96.80
72336;BME280;73817;48.446;8.834;2023-12-28T00:30:51;97761.81;;;0.15;96.65
72336;BME280;73817;48.446;8.834;2023-12-28T00:33:51;97760.06;;;0.16;96.21
72336;BME280;73817;48.446;8.834;2023-12-28T00:36:52;97746.59;;;0.12;95.65
72336;BME280;73817;48.446;8.834;2023-12-28T00:39:52;97756.19;;;0.10;95.87
72336;BME280;73817;48.446;8.834;2023-12-28T00:42:53;97751.97;;;0.09;96.01
72336;BME280;73817;48.446;8.834;2023-12-28T00:45:53;97757.34;;;0.06;95.84
72336;BME280;73817;48.446;8.834;2023-12-28T00:48:57;97759.22;;;0.04;95.82
72336;BME280;73817;48.446;8.834;2023-12-28T00:51:57;97759.34;;;0.03;95.38
72336;BME280;73817;48.446;8.834;2023-12-28T00:54:57;97771.50;;;0.00;95.90
72336;BME280;73817;48.446;8.834;2023-12-28T00:57:57;97769.13;;;-0.03;96.37
72336;BME280;73817;48.446;8.834;2023-12-28T01:00:58;97764.81;;;-0.02;96.70
72336;BME280;73817;48.446;8.834;2023-12-28T01:03:58;97766.69;;;-0.04;96.70
72336;BME280;73817;48.446;8.834;2023-12-28T01:06:59;97774.63;;;-0.07;96.46
72336;BME280;73817;48.446;8.834;2023-12-28T01:10:02;97769.47;;;-0.07;96.89
72336;BME280;73817;48.446;8.834;2023-12-28T01:13:02;97766.91;;;-0.07;96.46
72336;BME280;73817;48.446;8.834;2023-12-28T01:16:03;97763.66;;;-0.09;96.30
72336;BME280;73817;48.446;8.834;2023-12-28T01:19:05;97767.97;;;-0.10;96.08
72336;BME280;73817;48.446;8.834;2023-12-28T01:22:05;97770.66;;;-0.11;96.11
72336;BME280;73817;48.446;8.834;2023-12-28T01:25:06;97769.00;;;-0.12;95.90
72336;BME280;73817;48.446;8.834;2023-12-28T01:28:06;97775.19;;;-0.15;96.79
72336;BME280;73817;48.446;8.834;2023-12-28T01:31:06;97782.22;;;-0.17;96.66
72336;BME280;73817;48.446;8.834;2023-12-28T01:34:07;97777.88;;;-0.16;96.25
72336;BME280;73817;48.446;8.834;2023-12-28T01:37:09;97780.53;;;-0.18;96.68
72336;BME280;73817;48.446;8.834;2023-12-28T01:40:09;97777.19;;;-0.18;96.64
72336;BME280;73817;48.446;8.834;2023-12-28T01:43:10;97779.84;;;-0.20;96.83
72336;BME280;73817;48.446;8.834;2023-12-28T01:46:15;97794.34;;;-0.19;96.84
72336;BME280;73817;48.446;8.834;2023-12-28T01:49:17;97795.41;;;-0.21;96.36
72336;BME280;73817;48.446;8.834;2023-12-28T01:52:17;97805.81;;;-0.23;96.00
72336;BME280;73817;48.446;8.834;2023-12-28T01:55:18;97806.75;;;-0.24;97.08
72336;BME280;73817;48.446;8.834;2023-12-28T01:58:20;97814.56;;;-0.25;97.10
72336;BME280;73817;48.446;8.834;2023-12-28T02:01:20;97821.44;;;-0.26;96.81
72336;BME280;73817;48.446;8.834;2023-12-28T02:04:21;97825.75;;;-0.26;96.50
72336;BME280;73817;48.446;8.834;2023-12-28T02:07:29;97832.78;;;-0.28;96.50
72336;BME280;73817;48.446;8.834;2023-12-28T02:10:29;97830.31;;;-0.30;95.72
72336;BME280;73817;48.446;8.834;2023-12-28T02:13:30;97830.53;;;-0.33;96.53
72336;BME280;73817;48.446;8.834;2023-12-28T02:16:37;97827.13;;;-0.33;96.27
72336;BME280;73817;48.446;8.834;2023-12-28T02:19:40;97821.16;;;-0.34;95.93
72336;BME280;73817;48.446;8.834;2023-12-28T02:22:44;97831.56;;;-0.35;96.33
72336;BME280;73817;48.446;8.834;2023-12-28T02:25:45;97832.50;;;-0.36;96.13
72336;BME280;73817;48.446;8.834;2023-12-28T02:28:45;97836.13;;;-0.39;96.62
72336;BME280;73817;48.446;8.834;2023-12-28T02:31:53;97837.84;;;-0.39;96.68
72336;BME280;73817;48.446;8.834;2023-12-28T02:35:02;97835.19;;;-0.38;96.80
72336;BME280;73817;48.446;8.834;2023-12-28T02:38:09;97842.06;;;-0.38;96.72
72336;BME280;73817;48.446;8.834;2023-12-28T02:41:10;97836.91;;;-0.38;97.00
72336;BME280;73817;48.446;8.834;2023-12-28T02:44:12;97839.38;;;-0.37;97.63
72336;BME280;73817;48.446;8.834;2023-12-28T02:47:12;97833.34;;;-0.36;97.62
72336;BME280;73817;48.446;8.834;2023-12-28T02:50:14;97829.72;;;-0.33;97.13
72336;BME280;73817;48.446;8.834;2023-12-28T02:53:14;97826.19;;;-0.32;96.76
72336;BME280;73817;48.446;8.834;2023-12-28T02:56:14;97829.59;;;-0.32;97.28
72336;BME280;73817;48.446;8.834;2023-12-28T02:59:15;97822.72;;;-0.31;97.27
72336;BME280;73817;48.446;8.834;2023-12-28T03:02:15;97825.97;;;-0.29;97.29
72336;BME280;73817;48.446;8.834;2023-12-28T03:05:16;97824.13;;;-0.27;97.47
72336;BME280;73817;48.446;8.834;2023-12-28T03:08:16;97823.19;;;-0.26;96.76
72336;BME280;73817;48.446;8.834;2023-12-28T03:11:17;97833.47;;;-0.26;97.11
72336;BME280;73817;48.446;8.834;2023-12-28T03:14:17;97826.59;;;-0.26;96.93
72336;BME280;73817;48.446;8.834;2023-12-28T03:17:17;97821.44;;;-0.26;97.02
72336;BME280;73817;48.446;8.834;2023-12-28T03:20:18;97802.63;;;-0.26;96.65
72336;BME280;73817;48.446;8.834;2023-12-28T03:23:18;97803.44;;;-0.26;96.74
72336;BME280;73817;48.446;8.834;2023-12-28T03:26:19;97809.53;;;-0.27;96.60
72336;BME280;73817;48.446;8.834;2023-12-28T03:29:20;97818.03;;;-0.26;96.52
72336;BME280;73817;48.446;8.834;2023-12-28T03:32:21;97816.41;;;-0.27;96.51
72336;BME280;73817;48.446;8.834;2023-12-28T03:35:21;97811.16;;;-0.26;97.04
72336;BME280;73817;48.446;8.834;2023-12-28T03:38:21;97814.47;;;-0.24;97.10
72336;BME280;73817;48.446;8.834;2023-12-28T03:41:22;97819.44;;;-0.22;97.21
72336;BME280;73817;48.446;8.834;2023-12-28T03:44:22;97818.44;;;-0.20;97.57
72336;BME280;73817;48.446;8.834;2023-12-28T03:47:22;97817.28;;;-0.16;97.20
72336;BME280;73817;48.446;8.834;2023-12-28T03:50:24;97812.00;;;-0.14;97.50
72336;BME280;73817;48.446;8.834;2023-12-28T03:53:24;97804.19;;;-0.13;96.84
72336;BME280;73817;48.446;8.834;2023-12-28T03:56:26;97811.78;;;-0.11;96.55
72336;BME280;73817;48.446;8.834;2023-12-28T03:59:26;97813.44;;;-0.10;96.58
72336;BME280;73817;48.446;8.834;2023-12-28T04:02:27;97809.94;;;-0.09;96.54
72336;BME280;73817;48.446;8.834;2023-12-28T04:05:31;97801.28;;;-0.08;96.30
72336;BME280;73817;48.446;8.834;2023-12-28T04:08:31;97809.94;;;-0.09;96.24
72336;BME280;73817;48.446;8.834;2023-12-28T04:11:32;97806.31;;;-0.07;95.92
72336;BME280;73817;48.446;8.834;2023-12-28T04:14:34;97810.41;;;-0.04;96.29
72336;BME280;73817;48.446;8.834;2023-12-28T04:17:35;97808.56;;;-0.02;96.63
72336;BME280;73817;48.446;8.834;2023-12-28T04:20:35;97817.69;;;0.02;96.89
72336;BME280;73817;48.446;8.834;2023-12-28T04:23:37;97813.38;;;0.03;96.64
72336;BME280;73817;48.446;8.834;2023-12-28T04:26:37;97816.50;;;0.06;96.24
72336;BME280;73817;48.446;8.834;2023-12-28T04:29:37;97816.41;;;0.08;96.34
72336;BME280;73817;48.446;8.834;2023-12-28T04:32:38;97806.94;;;0.08;96.10
72336;BME280;73817;48.446;8.834;2023-12-28T04:35:39;97804.25;;;0.10;96.30
72336;BME280;73817;48.446;8.834;2023-12-28T04:38:39;97795.13;;;0.17;97.01
72336;BME280;73817;48.446;8.834;2023-12-28T04:41:40;97800.66;;;0.23;96.71
72336;BME280;73817;48.446;8.834;2023-12-28T04:44:40;97804.53;;;0.29;96.72
72336;BME280;73817;48.446;8.834;2023-12-28T04:47:41;97795.06;;;0.29;96.10
72336;BME280;73817;48.446;8.834;2023-12-28T04:50:41;97781.13;;;0.32;95.96
72336;BME280;73817;48.446;8.834;2023-12-28T04:53:41;97781.84;;;0.34;95.37
72336;BME280;73817;48.446;8.834;2023-12-28T04:56:42;97778.81;;;0.40;95.31
72336;BME280;73817;48.446;8.834;2023-12-28T04:59:42;97761.13;;;0.46;95.87
72336;BME280;73817;48.446;8.834;2023-12-28T05:02:42;97774.94;;;0.56;95.76
72336;BME280;73817;48.446;8.834;2023-12-28T05:05:43;97773.19;;;0.68;96.10
72336;BME280;73817;48.446;8.834;2023-12-28T05:08:43;97775.06;;;0.77;95.80
72336;BME280;73817;48.446;8.834;2023-12-28T05:11:43;97774.69;;;0.81;94.75
72336;BME280;73817;48.446;8.834;2023-12-28T05:14:44;97776.34;;;0.82;94.78
72336;BME280;73817;48.446;8.834;2023-12-28T05:17:44;97770.13;;;0.85;94.72
72336;BME280;73817;48.446;8.834;2023-12-28T05:20:44;97785.72;;;0.83;93.85
72336;BME280;73817;48.446;8.834;2023-12-28T05:23:45;97806.44;;;0.82;93.78
72336;BME280;73817;48.446;8.834;2023-12-28T05:26:45;97790.97;;;0.82;94.39
72336;BME280;73817;48.446;8.834;2023-12-28T05:29:45;97788.28;;;0.83;94.21
72336;BME280;73817;48.446;8.834;2023-12-28T05:32:46;97815.44;;;0.87;94.79
72336;BME280;73817;48.446;8.834;2023-12-28T05:35:46;97824.44;;;0.93;95.00
72336;BME280;73817;48.446;8.834;2023-12-28T05:38:46;97823.97;;;0.99;94.76
72336;BME280;73817;48.446;8.834;2023-12-28T05:41:47;97811.47;;;1.05;95.07
72336;BME280;73817;48.446;8.834;2023-12-28T05:44:47;97812.50;;;1.14;94.05
72336;BME280;73817;48.446;8.834;2023-12-28T05:47:48;97809.22;;;1.23;93.86
72336;BME280;73817;48.446;8.834;2023-12-28T05:50:48;97798.19;;;1.32;94.00
72336;BME280;73817;48.446;8.834;2023-12-28T05:53:49;97801.06;;;1.38;94.55
72336;BME280;73817;48.446;8.834;2023-12-28T05:56:49;97805.88;;;1.43;93.65
72336;BME280;73817;48.446;8.834;2023-12-28T05:59:50;97795.91;;;1.49;93.96
72336;BME280;73817;48.446;8.834;2023-12-28T06:02:50;97791.09;;;1.56;93.77
72336;BME280;73817;48.446;8.834;2023-12-28T06:05:51;97782.03;;;1.61;92.99
72336;BME280;73817;48.446;8.834;2023-12-28T06:08:52;97783.28;;;1.67;92.58
72336;BME280;73817;48.446;8.834;2023-12-28T06:11:52;97788.91;;;1.72;92.23
72336;BME280;73817;48.446;8.834;2023-12-28T06:14:52;97793.00;;;1.74;92.06
72336;BME280;73817;48.446;8.834;2023-12-28T06:17:53;97787.47;;;1.79;92.30
72336;BME280;73817;48.446;8.834;2023-12-28T06:20:53;97786.38;;;1.81;92.39
72336;BME280;73817;48.446;8.834;2023-12-28T06:23:53;97785.56;;;1.81;92.66
72336;BME280;73817;48.446;8.834;2023-12-28T06:26:54;97794.25;;;1.80;92.17
72336;BME280;73817;48.446;8.834;2023-12-28T06:29:54;97793.19;;;1.82;93.00
72336;BME280;73817;48.446;8.834;2023-12-28T06:32:55;97794.13;;;1.81;92.27
72336;BME280;73817;48.446;8.834;2023-12-28T06:35:55;97796.00;;;1.79;92.00
72336;BME280;73817;48.446;8.834;2023-12-28T06:38:58;97793.69;;;1.76;92.59
72336;BME280;73817;48.446;8.834;2023-12-28T06:41:59;97810.22;;;1.74;92.68
72336;BME280;73817;48.446;8.834;2023-12-28T06:44:59;97804.50;;;1.70;92.63
72336;BME280;73817;48.446;8.834;2023-12-28T06:48:00;97800.16;;;1.71;92.63
72336;BME280;73817;48.446;8.834;2023-12-28T06:51:00;97805.31;;;1.71;93.04
72336;BME280;73817;48.446;8.834;2023-12-28T06:54:00;97810.22;;;1.74;92.69
72336;BME280;73817;48.446;8.834;2023-12-28T06:57:01;97807.28;;;1.78;93.09
72336;BME280;73817;48.446;8.834;2023-12-28T07:00:01;97807.63;;;1.85;92.62
72336;BME280;73817;48.446;8.834;2023-12-28T07:03:03;97819.19;;;1.90;92.46
72336;BME280;73817;48.446;8.834;2023-12-28T07:06:03;97812.34;;;2.00;92.04
72336;BME280;73817;48.446;8.834;2023-12-28T07:09:04;97810.09;;;2.07;91.92
72336;BME280;73817;48.446;8.834;2023-12-28T07:12:05;97807.13;;;2.11;92.04
72336;BME280;73817;48.446;8.834;2023-12-28T07:15:06;97816.00;;;2.18;91.62
72336;BME280;73817;48.446;8.834;2023-12-28T07:18:07;97813.06;;;2.23;91.01
72336;BME280;73817;48.446;8.834;2023-12-28T07:21:07;97811.84;;;2.27;90.61
72336;BME280;73817;48.446;8.834;2023-12-28T07:24:11;97809.84;;;2.31;90.70
72336;BME280;73817;48.446;8.834;2023-12-28T07:27:12;97812.03;;;2.35;90.78
72336;BME280;73817;48.446;8.834;2023-12-28T07:30:12;97816.72;;;2.41;91.01
72336;BME280;73817;48.446;8.834;2023-12-28T07:33:13;97817.25;;;2.45;91.28
72336;BME280;73817;48.446;8.834;2023-12-28T07:36:13;97826.38;;;2.49;91.55
72336;BME280;73817;48.446;8.834;2023-12-28T07:39:13;97821.66;;;2.54;90.86
72336;BME280;73817;48.446;8.834;2023-12-28T07:42:15;97818.56;;;2.60;91.40
72336;BME280;73817;48.446;8.834;2023-12-28T07:45:15;97810.19;;;2.67;91.00
72336;BME280;73817;48.446;8.834;2023-12-28T07:48:17;97809.53;;;2.75;91.32
72336;BME280;73817;48.446;8.834;2023-12-28T07:51:17;97813.38;;;2.80;91.30
72336;BME280;73817;48.446;8.834;2023-12-28T07:54:18;97809.19;;;2.89;91.05
72336;BME280;73817;48.446;8.834;2023-12-28T07:57:18;97806.91;;;2.95;90.83
72336;BME280;73817;48.446;8.834;2023-12-28T08:00:19;97812.34;;;3.02;90.02
72336;BME280;73817;48.446;8.834;2023-12-28T08:03:19;97824.88;;;3.06;90.85
72336;BME280;73817;48.446;8.834;2023-12-28T08:06:19;97821.38;;;3.07;90.00
72336;BME280;73817;48.446;8.834;2023-12-28T08:09:20;97822.16;;;3.08;90.02
72336;BME280;73817;48.446;8.834;2023-12-28T08:12:20;97825.31;;;3.11;90.50
72336;BME280;73817;48.446;8.834;2023-12-28T08:15:24;97834.44;;;3.15;89.94
72336;BME280;73817;48.446;8.834;2023-12-28T08:18:25;97838.41;;;3.19;89.82
72336;BME280;73817;48.446;8.834;2023-12-28T08:21:25;97837.22;;;3.23;89.78
72336;BME280;73817;48.446;8.834;2023-12-28T08:24:25;97846.91;;;3.31;89.62
72336;BME280;73817;48.446;8.834;2023-12-28T08:27:26;97848.78;;;3.38;90.38
72336;BME280;73817;48.446;8.834;2023-12-28T08:30:26;97841.34;;;3.45;88.91
72336;BME280;73817;48.446;8.834;2023-12-28T08:33:27;97846.81;;;3.51;88.68
72336;BME280;73817;48.446;8.834;2023-12-28T08:36:28;97849.53;;;3.59;89.16
72336;BME280;73817;48.446;8.834;2023-12-28T08:39:29;97852.28;;;3.67;89.41
72336;BME280;73817;48.446;8.834;2023-12-28T08:42:29;97841.13;;;3.76;89.17
72336;BME280;73817;48.446;8.834;2023-12-28T08:45:30;97837.19;;;3.82;88.43
72336;BME280;73817;48.446;8.834;2023-12-28T08:48:30;97852.03;;;3.89;88.13
72336;BME280;73817;48.446;8.834;2023-12-28T08:51:31;97849.06;;;3.94;88.58
72336;BME280;73817;48.446;8.834;2023-12-28T08:54:31;97851.75;;;4.02;88.39
72336;BME280;73817;48.446;8.834;2023-12-28T08:57:31;97857.38;;;4.07;87.64
72336;BME280;73817;48.446;8.834;2023-12-28T09:00:32;97854.50;;;4.10;88.56
72336;BME280;73817;48.446;8.834;2023-12-28T09:03:32;97857.75;;;4.12;88.66
72336;BME280;73817;48.446;8.834;2023-12-28T09:06:32;97851.38;;;4.16;88.59
72336;BME280;73817;48.446;8.834;2023-12-28T09:09:33;97845.66;;;4.22;88.79
72336;BME280;73817;48.446;8.834;2023-12-28T09:12:33;97851.06;;;4.28;88.34
72336;BME280;73817;48.446;8.834;2023-12-28T09:15:33;97841.66;;;4.37;87.99
72336;BME280;73817;48.446;8.834;2023-12-28T09:18:34;97838.50;;;4.43;87.16
72336;BME280;73817;48.446;8.834;2023-12-28T09:21:36;97853.66;;;4.48;87.75
72336;BME280;73817;48.446;8.834;2023-12-28T09:24:37;97854.72;;;4.55;86.83
72336;BME280;73817;48.446;8.834;2023-12-28T09:27:37;97863.47;;;4.63;87.07
72336;BME280;73817;48.446;8.834;2023-12-28T09:30:37;97882.13;;;4.76;87.56
72336;BME280;73817;48.446;8.834;2023-12-28T09:33:38;97886.31;;;4.87;86.90
72336;BME280;73817;48.446;8.834;2023-12-28T09:36:38;97899.13;;;4.98;87.25
72336;BME280;73817;48.446;8.834;2023-12-28T09:39:38;97899.63;;;5.11;86.39
72336;BME280;73817;48.446;8.834;2023-12-28T09:43:24;97886.47;;;5.22;86.61
72336;BME280;73817;48.446;8.834;2023-12-28T09:46:27;97895.72;;;5.34;86.77
72336;BME280;73817;48.446;8.834;2023-12-28T09:49:28;97882.56;;;5.45;87.00
72336;BME280;73817;48.446;8.834;2023-12-28T09:52:30;97882.88;;;5.59;85.99
72336;BME280;73817;48.446;8.834;2023-12-28T09:55:30;97878.31;;;5.71;86.25
72336;BME280;73817;48.446;8.834;2023-12-28T09:58:33;97877.03;;;5.84;86.64
72336;BME280;73817;48.446;8.834;2023-12-28T10:01:35;97871.34;;;5.98;86.50
72336;BME280;73817;48.446;8.834;2023-12-28T10:04:36;97867.91;;;6.15;85.55
72336;BME280;73817;48.446;8.834;2023-12-28T10:07:41;97862.03;;;6.31;85.13
72336;BME280;73817;48.446;8.834;2023-12-28T10:10:43;97853.41;;;6.48;85.58
72336;BME280;73817;48.446;8.834;2023-12-28T10:13:44;97858.72;;;6.64;85.57
72336;BME280;73817;48.446;8.834;2023-12-28T10:16:44;97864.03;;;6.80;85.00
72336;BME280;73817;48.446;8.834;2023-12-28T10:19:44;97857.47;;;6.94;84.82
72336;BME280;73817;48.446;8.834;2023-12-28T10:22:47;97848.78;;;7.11;84.65
72336;BME280;73817;48.446;8.834;2023-12-28T10:25:50;97847.69;;;7.21;83.16
72336;BME280;73817;48.446;8.834;2023-12-28T10:28:59;97848.22;;;7.33;83.02
72336;BME280;73817;48.446;8.834;2023-12-28T10:32:00;97849.88;;;7.42;83.04
72336;BME280;73817;48.446;8.834;2023-12-28T10:35:01;97835.41;;;7.47;82.11
72336;BME280;73817;48.446;8.834;2023-12-28T10:38:02;97833.34;;;7.59;82.60
72336;BME280;73817;48.446;8.834;2023-12-28T10:41:06;97843.47;;;7.70;83.25
72336;BME280;73817;48.446;8.834;2023-12-28T10:44:08;97843.34;;;7.79;82.99
72336;BME280;73817;48.446;8.834;2023-12-28T10:47:16;97843.69;;;7.92;83.54
72336;BME280;73817;48.446;8.834;2023-12-28T10:50:18;97831.66;;;8.07;82.75
72336;BME280;73817;48.446;8.834;2023-12-28T10:56:45;97829.91;;;8.48;82.74
72336;BME280;73817;48.446;8.834;2023-12-28T11:00:10;97822.03;;;8.72;82.26
72336;BME280;73817;48.446;8.834;2023-12-28T11:03:18;97818.06;;;9.00;83.19
72336;BME280;73817;48.446;8.834;2023-12-28T11:06:25;97811.28;;;9.30;82.77
72336;BME280;73817;48.446;8.834;2023-12-28T11:09:30;97807.88;;;9.60;81.41
72336;BME280;73817;48.446;8.834;2023-12-28T11:12:31;97803.63;;;9.89;81.89
72336;BME280;73817;48.446;8.834;2023-12-28T11:15:32;97806.56;;;10.17;81.29
72336;BME280;73817;48.446;8.834;2023-12-28T11:18:35;97808.13;;;10.48;78.17
72336;BME280;73817;48.446;8.834;2023-12-28T11:21:36;97803.09;;;11.34;79.16
72336;BME280;73817;48.446;8.834;2023-12-28T11:24:36;97801.19;;;11.72;74.81
72336;BME280;73817;48.446;8.834;2023-12-28T11:27:37;97816.00;;;12.00;74.33
72336;BME280;73817;48.446;8.834;2023-12-28T11:30:38;97810.22;;;12.26;73.88
72336;BME280;73817;48.446;8.834;2023-12-28T11:33:46;97810.59;;;12.44;74.05
72336;BME280;73817;48.446;8.834;2023-12-28T11:36:49;97807.41;;;12.48;72.79
72336;BME280;73817;48.446;8.834;2023-12-28T11:39:50;97801.50;;;12.46;73.59
72336;BME280;73817;48.446;8.834;2023-12-28T11:42:52;97796.44;;;12.45;72.30
72336;BME280;73817;48.446;8.834;2023-12-28T11:45:56;97782.19;;;12.54;73.36
72336;BME280;73817;48.446;8.834;2023-12-28T11:49:09;97777.84;;;12.68;73.39
72336;BME280;73817;48.446;8.834;2023-12-28T11:52:10;97762.19;;;12.81;69.70
72336;BME280;73817;48.446;8.834;2023-12-28T11:55:20;97766.47;;;12.88;69.98
72336;BME280;73817;48.446;8.834;2023-12-28T11:58:21;97776.16;;;12.88;69.45
72336;BME280;73817;48.446;8.834;2023-12-28T12:01:22;97773.09;;;12.84;69.76
72336;BME280;73817;48.446;8.834;2023-12-28T12:04:22;97759.50;;;12.74;69.19
72336;BME280;73817;48.446;8.834;2023-12-28T12:07:24;97760.03;;;12.63;68.00
72336;BME280;73817;48.446;8.834;2023-12-28T12:10:25;97753.31;;;12.54;67.90
72336;BME280;73817;48.446;8.834;2023-12-28T12:13:25;97750.03;;;12.45;67.32
72336;BME280;73817;48.446;8.834;2023-12-28T12:16:26;97750.59;;;12.41;68.57
72336;BME280;73817;48.446;8.834;2023-12-28T12:19:27;97757.19;;;12.37;67.35
72336;BME280;73817;48.446;8.834;2023-12-28T12:22:27;97757.75;;;12.32;67.68
72336;BME280;73817;48.446;8.834;2023-12-28T12:25:28;97759.72;;;12.24;67.61
72336;BME280;73817;48.446;8.834;2023-12-28T12:28:29;97757.84;;;12.18;66.72
72336;BME280;73817;48.446;8.834;2023-12-28T12:31:29;97757.81;;;12.11;67.44
72336;BME280;73817;48.446;8.834;2023-12-28T12:34:30;97761.97;;;12.06;66.12
72336;BME280;73817;48.446;8.834;2023-12-28T12:37:30;97762.75;;;12.00;66.78
72336;BME280;73817;48.446;8.834;2023-12-28T12:40:30;97767.28;;;11.91;65.70
72336;BME280;73817;48.446;8.834;2023-12-28T12:43:31;97754.34;;;11.90;66.41
72336;BME280;73817;48.446;8.834;2023-12-28T12:46:31;97758.16;;;11.87;67.20
72336;BME280;73817;48.446;8.834;2023-12-28T12:49:32;97756.56;;;11.86;66.92
72336;BME280;73817;48.446;8.834;2023-12-28T12:52:32;97758.34;;;11.86;68.15
72336;BME280;73817;48.446;8.834;2023-12-28T12:55:33;97762.16;;;11.83;68.29
72336;BME280;73817;48.446;8.834;2023-12-28T12:58:34;97763.75;;;11.78;67.33
72336;BME280;73817;48.446;8.834;2023-12-28T13:01:35;97770.97;;;11.76;68.48
72336;BME280;73817;48.446;8.834;2023-12-28T13:04:38;97762.66;;;11.72;69.17
72336;BME280;73817;48.446;8.834;2023-12-28T13:07:38;97758.78;;;11.68;68.57
72336;BME280;73817;48.446;8.834;2023-12-28T13:10:38;97758.06;;;11.60;69.27
72336;BME280;73817;48.446;8.834;2023-12-28T13:13:39;97752.19;;;11.58;68.95
72336;BME280;73817;48.446;8.834;2023-12-28T13:16:39;97749.94;;;11.55;68.35
72336;BME280;73817;48.446;8.834;2023-12-28T13:19:40;97745.88;;;11.52;68.76
72336;BME280;73817;48.446;8.834;2023-12-28T13:22:40;97745.06;;;11.52;70.37
72336;BME280;73817;48.446;8.834;2023-12-28T13:25:40;97747.81;;;11.44;69.28
72336;BME280;73817;48.446;8.834;2023-12-28T13:28:41;97752.41;;;11.42;71.64
72336;BME280;73817;48.446;8.834;2023-12-28T13:31:42;97753.13;;;11.36;72.98
72336;BME280;73817;48.446;8.834;2023-12-28T13:34:44;97757.50;;;11.29;74.95
72336;BME280;73817;48.446;8.834;2023-12-28T13:37:45;97754.97;;;11.21;74.60
72336;BME280;73817;48.446;8.834;2023-12-28T13:40:45;97760.50;;;11.11;75.56
72336;BME280;73817;48.446;8.834;2023-12-28T13:43:46;97748.94;;;11.06;77.50
72336;BME280;73817;48.446;8.834;2023-12-28T13:46:46;97745.75;;;10.96;77.81
72336;BME280;73817;48.446;8.834;2023-12-28T13:49:46;97745.50;;;10.91;79.74
72336;BME280;73817;48.446;8.834;2023-12-28T13:52:47;97746.41;;;10.83;80.58
72336;BME280;73817;48.446;8.834;2023-12-28T13:55:48;97723.94;;;10.74;81.52
72336;BME280;73817;48.446;8.834;2023-12-28T13:58:48;97733.69;;;10.66;83.30
72336;BME280;73817;48.446;8.834;2023-12-28T14:01:48;97732.44;;;10.62;83.10
72336;BME280;73817;48.446;8.834;2023-12-28T14:04:49;97735.41;;;10.58;84.45
72336;BME280;73817;48.446;8.834;2023-12-28T14:07:49;97732.31;;;10.55;82.13
72336;BME280;73817;48.446;8.834;2023-12-28T14:10:50;97745.94;;;10.50;84.21
72336;BME280;73817;48.446;8.834;2023-12-28T14:13:50;97751.69;;;10.46;84.43
72336;BME280;73817;48.446;8.834;2023-12-28T14:16:51;97752.88;;;10.43;83.02
72336;BME280;73817;48.446;8.834;2023-12-28T14:19:51;97758.47;;;10.40;83.44
72336;BME280;73817;48.446;8.834;2023-12-28T14:22:52;97754.41;;;10.38;84.59
72336;BME280;73817;48.446;8.834;2023-12-28T14:25:52;97738.06;;;10.36;84.42
72336;BME280;73817;48.446;8.834;2023-12-28T14:28:54;97736.81;;;10.32;85.41
72336;BME280;73817;48.446;8.834;2023-12-28T14:31:54;97742.38;;;10.29;85.47
72336;BME280;73817;48.446;8.834;2023-12-28T14:34:55;97744.88;;;10.22;85.43
72336;BME280;73817;48.446;8.834;2023-12-28T14:37:55;97747.22;;;10.17;86.57
72336;BME280;73817;48.446;8.834;2023-12-28T14:40:56;97752.34;;;10.11;86.96
72336;BME280;73817;48.446;8.834;2023-12-28T14:43:57;97759.38;;;10.10;87.64
72336;BME280;73817;48.446;8.834;2023-12-28T14:46:57;97759.72;;;10.07;85.33
72336;BME280;73817;48.446;8.834;2023-12-28T14:49:58;97768.38;;;10.08;85.68
72336;BME280;73817;48.446;8.834;2023-12-28T14:52:58;97754.63;;;10.06;85.47
72336;BME280;73817;48.446;8.834;2023-12-28T14:55:58;97752.41;;;10.03;84.97
72336;BME280;73817;48.446;8.834;2023-12-28T14:59:00;97742.13;;;10.01;83.99
72336;BME280;73817;48.446;8.834;2023-12-28T15:02:00;97738.66;;;10.01;84.27
72336;BME280;73817;48.446;8.834;2023-12-28T15:05:00;97746.38;;;9.94;85.37
72336;BME280;73817;48.446;8.834;2023-12-28T15:08:01;97746.91;;;9.90;84.03
72336;BME280;73817;48.446;8.834;2023-12-28T15:11:02;97749.44;;;9.83;83.68
72336;BME280;73817;48.446;8.834;2023-12-28T15:14:03;97753.38;;;9.79;83.41
72336;BME280;73817;48.446;8.834;2023-12-28T15:17:04;97750.28;;;9.76;82.83
72336;BME280;73817;48.446;8.834;2023-12-28T15:20:05;97744.94;;;9.69;82.36
72336;BME280;73817;48.446;8.834;2023-12-28T15:23:08;97740.41;;;9.63;82.74
72336;BME280;73817;48.446;8.834;2023-12-28T15:26:09;97740.88;;;9.67;82.40
72336;BME280;73817;48.446;8.834;2023-12-28T15:29:09;97745.19;;;9.60;82.66
72336;BME280;73817;48.446;8.834;2023-12-28T15:32:09;97749.31;;;9.54;82.42
72336;BME280;73817;48.446;8.834;2023-12-28T15:35:13;97753.72;;;9.46;82.70
72336;BME280;73817;48.446;8.834;2023-12-28T15:38:17;97748.09;;;9.34;82.99
72336;BME280;73817;48.446;8.834;2023-12-28T15:41:19;97762.06;;;9.19;82.33
72336;BME280;73817;48.446;8.834;2023-12-28T15:44:20;97756.91;;;9.03;82.48
72336;BME280;73817;48.446;8.834;2023-12-28T15:47:20;97745.09;;;8.76;81.53
72336;BME280;73817;48.446;8.834;2023-12-28T15:50:21;97755.91;;;8.49;83.23
72336;BME280;73817;48.446;8.834;2023-12-28T15:53:21;97754.97;;;8.26;84.52
72336;BME280;73817;48.446;8.834;2023-12-28T15:56:21;97746.13;;;8.11;86.33
72336;BME280;73817;48.446;8.834;2023-12-28T15:59:21;97746.13;;;7.95;86.19
72336;BME280;73817;48.446;8.834;2023-12-28T16:02:22;97755.25;;;7.83;87.33
72336;BME280;73817;48.446;8.834;2023-12-28T16:05:22;97759.31;;;7.77;88.63
72336;BME280;73817;48.446;8.834;2023-12-28T16:08:22;97759.47;;;7.76;88.83